createdAt,value
2022-12-04T00:01:23.824Z,2.00
2022-12-04T00:03:55.922Z,1.95
2022-12-04T00:06:24.413Z,2.92
2022-12-04T00:08:52.824Z,2.60
2022-12-04T00:11:23.147Z,2.70
2022-12-04T00:13:51.309Z,2.92
2022-12-04T00:16:22.526Z,3.45
2022-12-04T00:18:50.662Z,3.35
2022-12-04T00:21:19.623Z,4.05
2022-12-04T00:23:47.407Z,3.85
2022-12-04T00:26:17.497Z,3.72
2022-12-04T00:28:45.621Z,5.85
2022-12-04T00:31:16.179Z,4.97
2022-12-04T00:33:44.208Z,3.78
2022-12-04T00:36:13.860Z,3.08
2022-12-04T00:38:42.889Z,3.30
2022-12-04T00:41:16.017Z,4.95
2022-12-04T00:43:43.673Z,3.80
2022-12-04T00:46:11.265Z,2.47
2022-12-04T00:48:39.240Z,2.38
2022-12-04T00:51:09.722Z,2.40
2022-12-04T00:53:37.592Z,3.03
2022-12-04T00:56:06.960Z,3.25
2022-12-04T00:58:34.396Z,2.58
2022-12-04T01:01:13.784Z,3.85
2022-12-04T01:03:42.480Z,4.38
2022-12-04T01:06:25.895Z,3.58
2022-12-04T01:08:54.500Z,4.20
2022-12-04T01:11:23.583Z,3.78
2022-12-04T01:13:51.318Z,4.65
2022-12-04T01:16:24.780Z,5.05
2022-12-04T01:18:52.507Z,5.88
2022-12-04T01:21:20.429Z,4.57
2022-12-04T01:23:48.195Z,6.45
2022-12-04T01:26:15.840Z,4.70
2022-12-04T01:28:43.578Z,5.93
2022-12-04T01:31:16.121Z,7.35
2022-12-04T01:33:44.284Z,7.10
2022-12-04T01:36:15.817Z,7.35
2022-12-04T01:38:43.688Z,6.10
2022-12-04T01:41:12.607Z,8.77
2022-12-04T01:43:41.435Z,7.90
2022-12-04T01:46:09.510Z,11.10
2022-12-04T01:48:42.855Z,6.28
2022-12-04T01:51:25.277Z,7.40
2022-12-04T01:56:46.551Z,6.50
2022-12-04T01:59:17.274Z,6.45
2022-12-04T02:01:56.363Z,5.95
2022-12-04T02:04:24.095Z,5.25
2022-12-04T02:06:51.609Z,6.28
2022-12-04T02:09:25.976Z,5.20
2022-12-04T02:12:12.600Z,6.00
2022-12-04T02:14:39.936Z,6.43
2022-12-04T02:17:19.105Z,4.95
2022-12-04T02:20:15.647Z,7.47
2022-12-04T02:22:52.487Z,6.78
2022-12-04T02:25:20.133Z,5.72
2022-12-04T02:28:05.784Z,5.57
2022-12-04T02:30:34.546Z,4.05
2022-12-04T02:33:04.232Z,8.00
2022-12-04T02:35:34.826Z,5.82
2022-12-04T02:38:14.829Z,5.90
2022-12-04T02:40:42.484Z,9.00
2022-12-04T02:43:18.601Z,5.05
2022-12-04T02:45:52.799Z,5.43
2022-12-04T02:48:21.559Z,4.85
2022-12-04T02:50:51.636Z,5.93
2022-12-04T02:53:21.190Z,7.22
2022-12-04T02:55:54.226Z,6.53
2022-12-04T02:58:31.014Z,10.85
2022-12-04T03:01:01.235Z,7.72
2022-12-04T03:03:30.883Z,7.22
2022-12-04T03:06:04.154Z,5.75
2022-12-04T03:08:35.403Z,6.88
2022-12-04T03:11:03.182Z,6.75
2022-12-04T03:13:34.236Z,4.72
2022-12-04T03:16:04.971Z,5.57
2022-12-04T03:18:41.581Z,6.40
2022-12-04T03:21:11.513Z,7.22
2022-12-04T03:23:45.185Z,7.22
2022-12-04T03:26:27.995Z,6.35
2022-12-04T03:28:55.727Z,5.65
2022-12-04T03:31:35.363Z,5.05
2022-12-04T03:34:04.725Z,5.80
2022-12-04T03:36:34.998Z,4.32
2022-12-04T03:39:09.437Z,5.43
2022-12-04T03:41:49.937Z,4.55
2022-12-04T03:44:27.158Z,6.03
2022-12-04T03:46:58.079Z,8.00
2022-12-04T03:49:46.028Z,5.20
2022-12-04T03:52:13.678Z,7.43
2022-12-04T03:54:44.191Z,7.78
2022-12-04T03:57:17.555Z,5.72
2022-12-04T03:59:55.596Z,6.15
2022-12-04T04:02:25.323Z,4.15
2022-12-04T04:04:56.406Z,4.45
2022-12-04T04:07:30.410Z,5.35
2022-12-04T04:10:06.379Z,7.43
2022-12-04T04:12:37.072Z,4.82
2022-12-04T04:15:28.027Z,8.43
2022-12-04T04:18:15.977Z,6.97
2022-12-04T04:21:10.644Z,5.00
2022-12-04T04:24:00.063Z,6.03
2022-12-04T04:26:29.901Z,5.68
2022-12-04T04:28:57.559Z,5.75
2022-12-04T04:31:34.247Z,5.38
2022-12-04T04:34:17.395Z,6.93
2022-12-04T04:36:51.264Z,6.35
2022-12-04T04:39:24.116Z,5.18
2022-12-04T04:41:56.085Z,4.78
2022-12-04T04:44:29.096Z,7.10
2022-12-04T04:46:59.408Z,6.03
2022-12-04T04:49:29.000Z,5.85
2022-12-04T04:51:57.410Z,5.72
2022-12-04T04:54:26.412Z,6.53
2022-12-04T04:56:54.132Z,6.30
2022-12-04T04:59:21.891Z,4.90
2022-12-04T05:01:49.623Z,5.65
2022-12-04T05:04:17.461Z,9.05
2022-12-04T05:06:45.144Z,9.15
2022-12-04T05:09:12.812Z,5.22
2022-12-04T05:11:40.449Z,6.25
2022-12-04T05:14:09.566Z,5.47
2022-12-04T05:16:38.647Z,5.45
2022-12-04T05:19:24.422Z,7.50
2022-12-04T05:21:51.895Z,10.90
2022-12-04T05:24:19.327Z,6.07
2022-12-04T05:26:46.655Z,4.95
2022-12-04T05:29:14.075Z,8.35
2022-12-04T05:31:41.620Z,8.15
2022-12-04T05:34:09.100Z,4.32
2022-12-04T05:36:36.519Z,5.55
2022-12-04T05:39:03.972Z,5.43
2022-12-04T05:41:31.358Z,5.10
2022-12-04T05:43:58.831Z,5.88
2022-12-04T05:46:26.521Z,5.07
2022-12-04T05:48:53.945Z,5.68
2022-12-04T05:51:21.372Z,6.18
2022-12-04T05:53:52.465Z,5.78
2022-12-04T05:56:19.906Z,7.05
2022-12-04T05:58:47.352Z,7.68
2022-12-04T06:01:23.919Z,8.07
2022-12-04T06:03:51.400Z,6.38
2022-12-04T06:06:22.642Z,8.52
2022-12-04T06:08:51.783Z,6.22
2022-12-04T06:11:23.411Z,4.32
2022-12-04T06:13:51.889Z,4.40
2022-12-04T06:16:22.709Z,4.65
2022-12-04T06:18:55.759Z,4.30
2022-12-04T06:21:26.025Z,4.07
2022-12-04T06:23:54.170Z,5.68
2022-12-04T06:26:22.351Z,4.70
2022-12-04T06:28:50.137Z,3.88
2022-12-04T06:31:19.027Z,3.42
2022-12-04T06:33:47.011Z,9.18
2022-12-04T06:36:16.942Z,10.07
2022-12-04T06:38:45.034Z,5.47
2022-12-04T06:41:15.119Z,4.30
2022-12-04T06:43:42.922Z,3.50
2022-12-04T06:46:16.317Z,4.85
2022-12-04T06:48:43.712Z,3.95
2022-12-04T06:51:17.340Z,3.60
2022-12-04T06:53:45.131Z,3.58
2022-12-04T06:56:17.942Z,2.97
2022-12-04T06:58:46.557Z,4.60
2022-12-04T07:01:20.038Z,6.05
2022-12-04T07:03:51.484Z,3.20
2022-12-04T07:06:25.488Z,2.33
2022-12-04T07:08:59.656Z,2.70
2022-12-04T07:11:27.361Z,2.50
2022-12-04T07:13:55.237Z,2.30
2022-12-04T07:16:24.173Z,3.72
2022-12-04T07:18:53.983Z,5.78
2022-12-04T07:21:27.424Z,2.28
2022-12-04T07:23:56.935Z,2.70
2022-12-04T07:26:25.598Z,2.47
2022-12-04T07:28:54.378Z,3.88
2022-12-04T07:31:23.812Z,4.20
2022-12-04T07:33:53.927Z,6.05
2022-12-04T07:36:22.730Z,6.63
2022-12-04T07:38:50.601Z,4.88
2022-12-04T07:41:19.186Z,5.85
2022-12-04T07:43:47.101Z,7.93
2022-12-04T07:46:23.280Z,5.00
2022-12-04T07:48:50.696Z,7.03
2022-12-04T07:51:24.025Z,5.53
2022-12-04T07:54:02.016Z,6.75
2022-12-04T07:56:31.067Z,6.53
2022-12-04T07:59:00.077Z,9.32
2022-12-04T08:01:27.688Z,9.63
2022-12-04T08:03:57.233Z,7.55
2022-12-04T08:06:26.468Z,9.57
2022-12-04T08:08:54.492Z,8.43
2022-12-04T08:11:24.626Z,9.95
2022-12-04T08:14:04.375Z,8.45
2022-12-04T08:16:33.687Z,9.75
2022-12-04T08:19:01.729Z,8.35
2022-12-04T08:21:31.317Z,11.25
2022-12-04T08:24:00.114Z,13.05
2022-12-04T08:26:29.264Z,9.50
2022-12-04T08:28:57.570Z,9.57
2022-12-04T08:31:27.309Z,9.05
2022-12-04T08:33:56.974Z,6.63
2022-12-04T08:36:24.910Z,7.40
2022-12-04T08:38:52.437Z,9.15
2022-12-04T08:41:24.138Z,7.47
2022-12-04T08:43:56.204Z,9.60
2022-12-04T08:46:25.799Z,10.77
2022-12-04T08:48:54.295Z,7.10
2022-12-04T08:51:24.316Z,8.77
2022-12-04T08:54:00.050Z,8.18
2022-12-04T08:56:29.550Z,9.20
2022-12-04T08:58:57.772Z,8.05
2022-12-04T09:01:26.211Z,8.45
2022-12-04T09:03:53.814Z,8.20
2022-12-04T09:06:21.769Z,7.30
2022-12-04T09:08:51.669Z,7.57
2022-12-04T09:11:21.522Z,8.07
2022-12-04T09:13:49.299Z,8.60
2022-12-04T09:16:22.349Z,7.00
2022-12-04T09:18:50.272Z,7.03
2022-12-04T09:21:19.406Z,7.82
2022-12-04T09:23:47.142Z,7.00
2022-12-04T09:26:29.429Z,7.10
2022-12-04T09:28:59.384Z,6.35
2022-12-04T09:31:27.495Z,7.90
2022-12-04T09:33:55.330Z,7.05
2022-12-04T09:36:22.794Z,5.72
2022-12-04T09:38:52.674Z,5.88
2022-12-04T09:41:50.306Z,6.20
2022-12-04T09:44:45.785Z,7.25
2022-12-04T09:47:27.972Z,5.15
2022-12-04T09:50:13.505Z,6.65
2022-12-04T09:52:50.588Z,5.78
2022-12-04T09:55:27.129Z,5.57
2022-12-04T09:58:02.194Z,4.80
2022-12-04T10:00:31.550Z,8.77
2022-12-04T10:03:06.443Z,7.70
2022-12-04T10:05:52.556Z,7.35
2022-12-04T10:08:31.341Z,5.90
2022-12-04T10:11:18.872Z,6.57
2022-12-04T10:14:19.474Z,5.70
2022-12-04T10:16:46.821Z,6.15
2022-12-04T10:20:00.610Z,4.82
2022-12-04T10:22:40.508Z,5.75
2022-12-04T10:25:22.866Z,5.88
2022-12-04T10:30:32.498Z,5.32
2022-12-04T10:33:17.068Z,7.13
2022-12-04T10:35:48.063Z,5.40
2022-12-04T10:38:42.248Z,5.90
2022-12-04T10:41:18.251Z,6.60
2022-12-04T10:43:48.365Z,6.50
2022-12-04T10:46:24.166Z,6.55
2022-12-04T10:48:59.844Z,6.50
2022-12-04T10:51:28.958Z,5.75
2022-12-04T10:53:57.326Z,6.10
2022-12-04T10:56:26.289Z,7.38
2022-12-04T10:58:58.076Z,6.82
2022-12-04T11:01:26.184Z,6.65
2022-12-04T11:04:07.724Z,7.15
2022-12-04T11:06:36.238Z,6.73
2022-12-04T11:09:04.425Z,8.23
2022-12-04T11:11:34.979Z,6.22
2022-12-04T11:14:35.869Z,6.68
2022-12-04T11:17:06.825Z,10.40
2022-12-04T11:19:36.496Z,7.95
2022-12-04T11:22:12.354Z,8.20
2022-12-04T11:24:42.667Z,7.18
2022-12-04T11:27:28.459Z,7.22
2022-12-04T11:29:56.790Z,11.15
2022-12-04T11:32:27.598Z,6.47
2022-12-04T11:34:59.470Z,10.90
2022-12-04T11:37:30.898Z,7.53
2022-12-04T11:39:58.803Z,8.20
2022-12-04T11:42:29.382Z,6.55
2022-12-04T11:45:18.506Z,5.25
2022-12-04T11:47:54.717Z,6.43
2022-12-04T11:50:29.943Z,11.90
2022-12-04T11:53:21.527Z,9.68
2022-12-04T11:56:14.235Z,5.85
2022-12-04T11:58:51.551Z,6.78
2022-12-04T12:01:45.459Z,5.32
2022-12-04T12:04:50.358Z,5.07
2022-12-04T12:07:20.613Z,6.45
2022-12-04T12:10:07.038Z,5.25
2022-12-04T12:12:43.443Z,4.53
2022-12-04T12:15:19.718Z,3.95
2022-12-04T12:18:12.997Z,4.75
2022-12-04T12:21:00.672Z,4.10
2022-12-04T12:24:00.052Z,5.38
2022-12-04T12:26:57.570Z,5.00
2022-12-04T12:30:04.236Z,5.20
2022-12-04T12:32:37.325Z,5.45
2022-12-04T12:35:14.547Z,6.22
2022-12-04T12:37:49.570Z,4.97
2022-12-04T12:40:38.663Z,6.20
2022-12-04T12:43:07.747Z,6.15
2022-12-04T12:45:54.452Z,6.43
2022-12-04T12:48:30.386Z,17.92
2022-12-04T12:51:33.253Z,17.35
2022-12-04T12:54:22.805Z,10.18
2022-12-04T12:56:55.412Z,11.05
2022-12-04T12:59:27.395Z,13.95
2022-12-04T13:02:00.706Z,9.10
2022-12-04T13:04:41.965Z,12.88
2022-12-04T13:07:18.316Z,10.43
2022-12-04T13:09:58.055Z,9.32
2022-12-04T13:12:26.995Z,7.75
2022-12-04T13:14:54.447Z,11.25
2022-12-04T13:17:38.591Z,8.02
2022-12-04T13:20:13.126Z,9.77
2022-12-04T13:23:09.472Z,10.77
2022-12-04T13:25:45.413Z,8.68
2022-12-04T13:28:21.405Z,8.90
2022-12-04T13:31:09.561Z,10.48
2022-12-04T13:34:08.903Z,9.95
2022-12-04T13:37:05.645Z,10.25
2022-12-04T13:40:10.698Z,10.90
2022-12-04T13:42:38.292Z,8.93
2022-12-04T13:45:32.634Z,8.73
2022-12-04T13:48:03.506Z,10.90
2022-12-04T13:50:34.043Z,8.27
2022-12-04T13:53:01.852Z,9.02
2022-12-04T13:55:31.255Z,9.20
2022-12-04T13:58:12.239Z,10.45
2022-12-04T14:00:42.637Z,10.95
2022-12-04T14:03:28.273Z,9.23
2022-12-04T14:05:56.053Z,8.95
2022-12-04T14:08:28.230Z,10.95
2022-12-04T14:13:43.625Z,11.95
2022-12-04T14:16:40.241Z,10.55
2022-12-04T14:19:08.909Z,10.55
2022-12-04T14:21:45.466Z,21.60
2022-12-04T14:24:30.512Z,12.27
2022-12-04T14:27:13.816Z,12.85
2022-12-04T14:29:49.713Z,10.65
2022-12-04T14:32:24.456Z,9.75
2022-12-04T14:34:53.289Z,11.85
2022-12-04T14:37:28.606Z,9.95
2022-12-04T14:39:57.660Z,7.63
2022-12-04T14:42:28.001Z,8.85
2022-12-04T14:45:00.279Z,11.52
2022-12-04T14:50:50.583Z,8.77
2022-12-04T14:54:03.547Z,10.98
2022-12-04T14:59:44.949Z,11.48
2022-12-04T15:02:18.754Z,15.10
2022-12-04T15:04:49.121Z,12.60
2022-12-04T15:07:25.145Z,15.55
2022-12-04T15:10:16.628Z,55.25
2022-12-04T15:12:50.855Z,12.70
2022-12-04T15:15:27.010Z,12.02
2022-12-04T15:18:02.352Z,11.65
2022-12-04T15:20:53.151Z,11.00
2022-12-04T15:23:34.598Z,11.25
2022-12-04T15:26:18.738Z,11.07
2022-12-04T15:29:00.688Z,10.65
2022-12-04T15:31:43.460Z,18.50
2022-12-04T15:34:16.121Z,16.77
2022-12-04T15:36:56.737Z,13.23
2022-12-04T15:39:27.686Z,16.10
2022-12-04T15:42:17.747Z,18.85
2022-12-04T15:44:54.722Z,17.88
2022-12-04T15:47:25.710Z,15.23
2022-12-04T15:49:53.340Z,13.70
2022-12-04T15:52:23.300Z,13.18
2022-12-04T15:54:59.975Z,16.23
2022-12-04T15:57:41.384Z,17.58
2022-12-04T16:00:26.275Z,12.40
2022-12-04T16:02:54.762Z,14.85
2022-12-04T16:05:22.143Z,16.40
2022-12-04T16:08:17.712Z,14.52
2022-12-04T16:11:03.908Z,14.45
2022-12-04T16:13:37.133Z,15.43
2022-12-04T16:16:12.734Z,13.68
2022-12-04T16:18:40.634Z,16.48
2022-12-04T16:21:15.136Z,15.00
2022-12-04T16:23:42.917Z,15.60
2022-12-04T16:26:15.466Z,16.35
2022-12-04T16:28:42.883Z,19.45
2022-12-04T16:31:14.039Z,15.48
2022-12-04T16:33:41.454Z,15.50
2022-12-04T16:36:11.471Z,16.55
2022-12-04T16:38:38.890Z,15.15
2022-12-04T16:41:13.459Z,17.48
2022-12-04T16:43:40.964Z,14.77
2022-12-04T16:46:16.325Z,14.20
2022-12-04T16:48:43.810Z,17.67
2022-12-04T16:51:16.332Z,16.02
2022-12-04T16:53:44.068Z,18.27
2022-12-04T16:56:11.794Z,17.25
2022-12-04T16:58:39.154Z,18.00
2022-12-04T17:01:18.843Z,15.73
2022-12-04T17:03:46.591Z,17.77
2022-12-04T17:06:14.191Z,17.95
2022-12-04T17:08:41.700Z,15.55
2022-12-04T17:11:18.294Z,18.38
2022-12-04T17:13:46.302Z,18.35
2022-12-04T17:16:15.157Z,19.40
2022-12-04T17:18:44.062Z,18.50
2022-12-04T17:21:13.472Z,16.85
2022-12-04T17:23:41.296Z,16.23
2022-12-04T17:26:12.305Z,18.83
2022-12-04T17:28:40.498Z,22.95
2022-12-04T17:31:17.014Z,20.85
2022-12-04T17:33:44.956Z,18.77
2022-12-04T17:36:14.890Z,18.92
2022-12-04T17:38:42.583Z,17.88
2022-12-04T17:41:13.908Z,16.08
2022-12-04T17:43:42.609Z,19.50
2022-12-04T17:46:12.107Z,17.92
2022-12-04T17:48:40.160Z,17.80
2022-12-04T17:51:13.745Z,17.80
2022-12-04T17:53:41.707Z,19.60
2022-12-04T17:56:12.733Z,24.73
2022-12-04T17:58:40.342Z,25.80
2022-12-04T18:01:13.730Z,28.70
2022-12-04T18:03:43.327Z,26.80
2022-12-04T18:06:19.084Z,29.98
2022-12-04T18:08:50.024Z,22.85
2022-12-04T18:11:20.774Z,23.95
2022-12-04T18:13:49.316Z,20.25
2022-12-04T18:16:16.785Z,20.45
2022-12-04T18:18:47.207Z,20.83
2022-12-04T18:21:15.259Z,20.08
2022-12-04T18:23:45.951Z,18.80
2022-12-04T18:26:19.301Z,19.92
2022-12-04T18:28:47.886Z,21.90
2022-12-04T18:31:17.369Z,24.92
2022-12-04T18:33:45.590Z,23.55
2022-12-04T18:36:15.853Z,36.03
2022-12-04T18:38:43.351Z,31.38
2022-12-04T18:41:12.432Z,27.33
2022-12-04T18:43:42.136Z,28.42
2022-12-04T18:46:12.230Z,27.50
2022-12-04T18:48:40.753Z,28.38
2022-12-04T18:51:26.955Z,31.38
2022-12-04T18:53:57.319Z,29.08
2022-12-04T18:56:25.067Z,27.02
2022-12-04T18:59:13.192Z,30.33
2022-12-04T19:01:41.642Z,29.88
2022-12-04T19:04:11.118Z,26.67
2022-12-04T19:06:44.052Z,29.38
2022-12-04T19:09:14.552Z,26.13
2022-12-04T19:11:42.607Z,24.90
2022-12-04T19:14:20.726Z,26.88
2022-12-04T19:16:50.758Z,28.63
2022-12-04T19:19:18.337Z,30.52
2022-12-04T19:21:45.999Z,27.70
2022-12-04T19:24:14.094Z,26.27
2022-12-04T19:26:41.615Z,27.63
2022-12-04T19:29:09.569Z,22.75
2022-12-04T19:31:37.954Z,23.10
2022-12-04T19:34:06.281Z,24.00
2022-12-04T19:36:35.298Z,27.02
2022-12-04T19:39:04.573Z,26.60
2022-12-04T19:41:34.311Z,27.02
2022-12-04T19:44:07.830Z,23.50
2022-12-04T19:46:42.448Z,23.20
2022-12-04T19:49:12.520Z,24.33
2022-12-04T19:51:40.689Z,25.70
2022-12-04T19:54:11.080Z,19.35
2022-12-04T19:56:38.503Z,26.30
2022-12-04T19:59:07.258Z,19.85
2022-12-04T20:01:35.566Z,22.88
2022-12-04T20:04:05.768Z,21.38
2022-12-04T20:06:44.785Z,23.23
2022-12-04T20:09:15.189Z,20.23
2022-12-04T20:11:42.548Z,22.60
2022-12-04T20:14:10.749Z,27.30
2022-12-04T20:16:39.001Z,25.83
2022-12-04T20:19:08.676Z,23.80
2022-12-04T20:21:36.108Z,28.02
2022-12-04T20:24:05.987Z,29.20
2022-12-04T20:26:38.290Z,26.40
2022-12-04T20:29:07.222Z,30.80
2022-12-04T20:31:37.249Z,30.67
2022-12-04T20:34:07.519Z,30.15
2022-12-04T20:36:41.329Z,31.33
2022-12-04T20:39:10.188Z,31.95
2022-12-04T20:41:38.337Z,33.03
2022-12-04T20:44:07.633Z,27.40
2022-12-04T20:46:37.710Z,29.90
2022-12-04T20:49:07.622Z,30.50
2022-12-04T20:51:39.044Z,34.10
2022-12-04T20:54:07.892Z,30.92
2022-12-04T20:56:36.969Z,33.30
2022-12-04T20:59:07.669Z,32.55
2022-12-04T21:01:36.167Z,31.02
2022-12-04T21:04:04.586Z,30.17
2022-12-04T21:06:35.925Z,30.50
2022-12-04T21:09:15.429Z,26.93
2022-12-04T21:11:49.053Z,30.90
2022-12-04T21:14:38.174Z,31.90
2022-12-04T21:17:07.527Z,33.33
2022-12-04T21:19:35.094Z,29.67
2022-12-04T21:22:02.456Z,30.23
2022-12-04T21:24:36.137Z,25.65
2022-12-04T21:27:03.862Z,30.98
2022-12-04T21:29:31.317Z,29.95
2022-12-04T21:31:58.678Z,29.35
2022-12-04T21:34:26.153Z,29.42
2022-12-04T21:36:53.661Z,26.17
2022-12-04T21:39:23.819Z,26.40
2022-12-04T21:42:10.025Z,23.27
2022-12-04T21:44:38.016Z,23.73
2022-12-04T21:47:05.505Z,22.58
2022-12-04T21:49:32.991Z,24.77
2022-12-04T21:52:00.362Z,27.58
2022-12-04T21:54:28.602Z,24.77
2022-12-04T21:56:56.775Z,25.40
2022-12-04T21:59:25.433Z,26.02
2022-12-04T22:01:53.322Z,26.10
2022-12-04T22:04:21.619Z,29.35
2022-12-04T22:06:49.366Z,29.90
2022-12-04T22:09:17.276Z,34.67
2022-12-04T22:11:45.442Z,32.28
2022-12-04T22:14:12.941Z,33.42
2022-12-04T22:16:42.903Z,31.50
2022-12-04T22:19:12.327Z,32.83
2022-12-04T22:21:40.288Z,31.90
2022-12-04T22:24:08.256Z,32.90
2022-12-04T22:26:36.147Z,28.25
2022-12-04T22:29:20.858Z,30.42
2022-12-04T22:31:51.556Z,29.65
2022-12-04T22:34:19.002Z,31.98
2022-12-04T22:36:48.840Z,29.98
2022-12-04T22:39:16.244Z,33.13
2022-12-04T22:41:43.676Z,33.35
2022-12-04T22:44:11.020Z,36.22
2022-12-04T22:46:38.544Z,35.17
2022-12-04T22:49:06.014Z,34.63
2022-12-04T22:51:33.465Z,35.50
2022-12-04T22:54:00.879Z,35.78
2022-12-04T22:56:32.035Z,34.97
2022-12-04T22:59:00.415Z,31.77
2022-12-04T23:01:30.174Z,30.98
2022-12-04T23:03:57.776Z,34.08
2022-12-04T23:06:27.390Z,32.63
2022-12-04T23:09:00.718Z,30.88
2022-12-04T23:11:28.722Z,31.88
2022-12-04T23:14:02.280Z,32.53
2022-12-04T23:16:31.594Z,33.42
2022-12-04T23:18:59.119Z,29.15
2022-12-04T23:21:27.539Z,28.13
2022-12-04T23:23:56.060Z,29.83
2022-12-04T23:26:39.394Z,28.65
2022-12-04T23:29:23.311Z,32.28
2022-12-04T23:31:54.605Z,32.47
2022-12-04T23:34:22.258Z,30.17
2022-12-04T23:36:49.607Z,34.22
2022-12-04T23:39:17.425Z,38.30
2022-12-04T23:41:44.872Z,37.85
2022-12-04T23:44:12.258Z,41.47
2022-12-04T23:46:39.715Z,38.13
2022-12-04T23:49:07.161Z,38.58
2022-12-04T23:51:34.555Z,44.80
2022-12-04T23:54:01.914Z,40.60
2022-12-04T23:56:29.451Z,39.65
2022-12-04T23:58:57.829Z,45.22
